Portada
METAR-TAF:

METAR-TAF

Aeroports :

Rarotonga, Illes Cook

latitud: 21-12S, longitud: 159-49W, altitud: 7 m

Observació

L'informe es va fer fa 30 minuts, a les 13:30 UTC
Vent 12 kt del Est
Temperatura 24°C
Humitat 78%
Pressió 1011 hPa
Visibilitat 10 km o més

METAR: NCRG 091330Z AUTO 08012KT 9999 FEW022/// SCT034/// 24/20 Q1011

Hora: 04:00 (14:00 UTC)

Pronòstic

L'informe es va fer fa 2 hores i 54 minuts, a les 11:06 UTC
Pronòstic vàlid del 09 a les 12 UTC al 10 a les 12 UTC
Vent 11 kt del Est
Visibilitat 10 km o més
Núvols disperses a una alçada de 2200 ft
Cel ennuvolat a una alçada de 4400 ft
Probabilitat 40% :
Temporalment
l' 10 a les 02 UTC al 10 a les 06 UTC
Vent 15 kt del Est amb ràfegues de 25 kt

TAF: NCRG 091106Z 0912/1012 08011KT 9999 SCT022 BKN044 PROB40 TEMPO 1002/1006 10015G25KT

Observacions i pronòstics meteorològics de més de 4000 aeroports (METAR i TAF).

Les estacions disponibles són els punts grocs i vermells al mapa.

Posi el ratolí al punt desitjat per veure el nom de l'estació.

Feu clic per veure les observacions i els pronòstics meteorològics.

Per canviar el mapa: feu clic els botons verds amb una creu de color negre per apropar; al botó verd amb un guió per allunyar la imatge; o en les fletxes verdes per a mapes adjacents.


METAR-TAF: